Time;durP1;ratioP1;P1;durP2;ratioP2;P2;SDS_P1;SDS_P2;PMS_P1;PMS_P2;Temp;Humidity;BMP_temperature;BMP_pressure;BME280_temperature;BME280_humidity;BME280_pressure;Samples;Min_cycle;Max_cycle;Signal;HPM_P1;HPM_P2
2023/07/18 00:02:22;;;;;;;7.25;4.82;;;;;;;25.16;58.18;99967.78;7630238;32;37848;-82
2023/07/18 00:06:41;;;;;;;10.25;5.00;;;;;;;25.06;58.11;99963.59;7629985;32;39158;-82
2023/07/18 00:10:58;;;;;;;7.12;4.68;;;;;;;25.18;57.62;99970.22;7629854;32;39848;-82
2023/07/18 00:15:14;;;;;;;7.45;4.95;;;;;;;25.03;57.76;99952.38;7630820;32;38508;-82
2023/07/18 00:19:31;;;;;;;8.35;4.75;;;;;;;25.14;57.04;99958.19;7633667;32;35628;-82
2023/07/18 00:23:48;;;;;;;8.80;4.85;;;;;;;25.15;56.75;99960.59;7633571;32;40286;-81
2023/07/18 00:28:04;;;;;;;7.32;4.55;;;;;;;24.97;57.09;99963.00;7644467;32;39729;-81
2023/07/18 00:32:22;;;;;;;10.05;5.00;;;;;;;25.09;56.43;99965.69;7633341;32;38718;-81
2023/07/18 00:36:39;;;;;;;10.50;4.53;;;;;;;24.94;56.81;99960.97;7633570;32;37107;-82
2023/07/18 00:40:55;;;;;;;9.13;5.03;;;;;;;25.07;56.35;99948.47;7633390;32;39342;-82
2023/07/18 00:45:13;;;;;;;7.57;4.32;;;;;;;24.85;57.09;99930.50;7633237;32;40921;-81
2023/07/18 00:49:29;;;;;;;5.87;4.12;;;;;;;25.30;55.50;99936.59;7633066;32;38714;-82
2023/07/18 00:53:46;;;;;;;9.25;4.40;;;;;;;25.12;55.87;99934.25;7633193;32;37264;-81
2023/07/18 00:58:03;;;;;;;8.95;4.45;;;;;;;25.11;56.05;99927.06;7633148;32;39135;-80
2023/07/18 01:02:20;;;;;;;7.60;4.80;;;;;;;24.73;57.13;99927.81;7633083;32;39975;-80
2023/07/18 01:06:37;;;;;;;6.87;4.12;;;;;;;24.57;57.37;99941.00;7631776;32;37992;-78
2023/07/18 01:10:54;;;;;;;8.02;4.75;;;;;;;24.58;57.33;99940.66;7633285;32;36856;-80
2023/07/18 01:15:12;;;;;;;8.10;4.45;;;;;;;24.63;57.02;99940.34;7659172;32;39142;-80
2023/07/18 01:19:30;;;;;;;6.93;4.65;;;;;;;24.53;57.34;99940.87;7659157;32;40319;-79
2023/07/18 01:23:47;;;;;;;6.93;4.35;;;;;;;24.48;57.45;99949.53;7657833;32;37958;-80
2023/07/18 01:28:03;;;;;;;7.35;4.35;;;;;;;24.50;57.51;99947.19;7658261;32;37337;-80
2023/07/18 01:32:20;;;;;;;8.75;4.70;;;;;;;24.44;57.75;99959.75;7657619;32;39268;-79
2023/07/18 01:36:37;;;;;;;9.25;5.00;;;;;;;24.45;57.71;99953.84;7658873;32;40810;-80
2023/07/18 01:40:53;;;;;;;6.95;4.30;;;;;;;24.43;57.55;99942.25;7658779;32;37992;-79
2023/07/18 01:45:10;;;;;;;8.32;4.40;;;;;;;24.52;57.01;99947.63;7658939;32;37279;-79
2023/07/18 01:49:26;;;;;;;7.78;4.90;;;;;;;24.59;56.54;99942.25;7658781;32;40035;-79
2023/07/18 01:53:43;;;;;;;8.70;4.97;;;;;;;24.37;57.20;99944.50;7657498;32;40790;-80
2023/07/18 01:58:00;;;;;;;8.25;4.70;;;;;;;24.36;57.15;99940.09;7658636;32;38518;-80
2023/07/18 02:02:16;;;;;;;7.30;4.47;;;;;;;24.36;56.91;99931.75;7658689;32;37577;-80
2023/07/18 02:06:33;;;;;;;6.85;4.15;;;;;;;24.41;56.41;99949.38;7658626;32;39355;-81
2023/07/18 02:10:49;;;;;;;7.55;4.45;;;;;;;24.46;56.17;99937.94;7658419;32;40841;-80
2023/07/18 02:15:06;;;;;;;7.78;4.03;;;;;;;24.47;55.96;99945.91;7658414;32;38923;-80
2023/07/18 02:19:23;;;;;;;11.10;4.60;;;;;;;24.42;56.02;99957.34;7658440;32;37234;-81
2023/07/18 02:23:39;;;;;;;5.43;3.95;;;;;;;24.23;56.58;99954.50;7658483;32;39339;-81
2023/07/18 02:27:56;;;;;;;8.20;4.80;;;;;;;23.95;57.80;99963.75;7658030;32;39862;-81
2023/07/18 02:32:12;;;;;;;7.10;4.75;;;;;;;23.91;57.91;99980.34;7658364;32;38747;-82
2023/07/18 02:36:29;;;;;;;7.40;4.22;;;;;;;23.88;58.14;99978.28;7658248;32;37078;-80
2023/07/18 02:40:46;;;;;;;6.10;4.20;;;;;;;24.05;57.45;99990.25;7657986;32;39601;-79
2023/07/18 02:45:02;;;;;;;8.38;4.82;;;;;;;23.85;58.28;100006.81;7658199;32;40025;-80
2023/07/18 02:49:19;;;;;;;7.28;4.90;;;;;;;23.83;58.68;100008.34;7658084;32;38784;-81
2023/07/18 02:53:35;;;;;;;8.73;4.93;;;;;;;23.83;58.91;100009.16;7657938;32;38048;-80
2023/07/18 02:57:53;;;;;;;6.97;4.90;;;;;;;23.80;59.32;100004.25;7657823;32;39322;-80
2023/07/18 03:02:09;;;;;;;6.68;4.62;;;;;;;23.75;59.91;100001.75;7657849;32;40870;-80
2023/07/18 03:06:25;;;;;;;6.75;4.57;;;;;;;23.72;60.26;100002.47;7657648;32;38080;-79
2023/07/18 03:10:42;;;;;;;7.28;4.68;;;;;;;24.09;58.64;100007.84;7657584;32;37040;-79
2023/07/18 03:14:58;;;;;;;8.55;4.45;;;;;;;24.10;58.43;100003.91;7657631;32;39065;-80
2023/07/18 03:19:15;;;;;;;6.85;4.12;;;;;;;24.16;58.17;99999.66;7657512;32;39976;-80
2023/07/18 03:23:32;;;;;;;8.55;4.30;;;;;;;24.18;58.08;100012.09;7657245;32;38313;-79
2023/07/18 03:27:49;;;;;;;6.95;4.25;;;;;;;24.09;58.37;100007.84;7657023;32;37044;-80
2023/07/18 03:32:06;;;;;;;8.77;4.47;;;;;;;24.11;58.26;100014.69;7657171;32;40134;-79
2023/07/18 03:36:22;;;;;;;7.45;4.55;;;;;;;24.06;58.53;100006.59;7657044;32;39938;-81
2023/07/18 03:40:39;;;;;;;9.82;4.43;;;;;;;24.10;58.42;100018.62;7656769;32;38677;-81
2023/07/18 03:44:55;;;;;;;15.00;4.70;;;;;;;24.10;58.53;100018.62;7656841;32;37263;-80
2023/07/18 03:49:12;;;;;;;8.13;4.70;;;;;;;23.92;59.05;100037.66;7656671;32;40069;-81
2023/07/18 03:53:28;;;;;;;8.77;4.40;;;;;;;23.98;58.85;100033.44;7659968;32;40021;-80
2023/07/18 03:57:45;;;;;;;7.30;4.43;;;;;;;24.10;58.61;100042.91;7660169;32;38745;-81
2023/07/18 04:02:01;;;;;;;9.57;4.10;;;;;;;24.11;58.67;100027.78;7660141;32;37151;-81
2023/07/18 04:06:17;;;;;;;10.27;4.75;;;;;;;24.12;58.70;100029.41;7660047;32;39325;-81
2023/07/18 04:10:34;;;;;;;10.38;4.75;;;;;;;24.08;58.89;100025.75;7659913;32;41211;-81
2023/07/18 04:14:51;;;;;;;11.40;4.47;;;;;;;24.06;59.16;100030.84;7659827;32;37677;-81
2023/07/18 04:19:08;;;;;;;7.00;4.50;;;;;;;24.13;59.15;100040.22;7659745;32;37174;-81
2023/07/18 04:23:24;;;;;;;10.80;4.85;;;;;;;24.31;58.68;100043.44;7659758;32;39379;-80
2023/07/18 04:27:41;;;;;;;7.72;4.70;;;;;;;24.43;58.32;100047.31;7659458;32;39859;-72
2023/07/18 04:31:57;;;;;;;7.47;3.92;;;;;;;24.50;58.51;100053.06;7659574;32;38076;-71
2023/07/18 04:36:13;;;;;;;6.40;3.92;;;;;;;24.88;57.82;100051.63;7659602;32;37029;-72
2023/07/18 04:40:30;;;;;;;6.32;4.43;;;;;;;25.16;56.73;100036.72;7659548;32;39726;-72
2023/07/18 04:44:46;;;;;;;6.55;4.10;;;;;;;25.22;56.35;100033.28;7659479;32;39717;-71
2023/07/18 04:49:03;;;;;;;9.73;3.97;;;;;;;25.35;55.95;100036.75;7659353;32;38796;-71
2023/07/18 04:53:19;;;;;;;9.75;4.22;;;;;;;25.39;55.80;100040.44;7659280;32;37149;-72
2023/07/18 04:57:36;;;;;;;7.72;4.70;;;;;;;25.66;55.00;100037.78;7652159;32;39276;-71
2023/07/18 05:01:55;;;;;;;11.07;4.80;;;;;;;25.63;54.96;100046.91;7643487;32;40129;-69
2023/07/18 05:06:12;;;;;;;8.48;4.68;;;;;;;25.63;54.56;100050.53;7659188;32;38925;-72
2023/07/18 05:10:28;;;;;;;12.50;5.32;;;;;;;25.73;54.34;100054.69;7646994;32;37397;-73
2023/07/18 05:14:45;;;;;;;11.12;5.20;;;;;;;25.70;54.52;100046.25;7654820;32;40045;-70
2023/07/18 05:19:01;;;;;;;12.00;5.03;;;;;;;25.75;54.30;100049.56;7670486;32;40556;-71
2023/07/18 05:23:17;;;;;;;8.07;4.68;;;;;;;25.86;54.19;100055.34;7685331;32;38073;-71
2023/07/18 05:27:34;;;;;;;9.98;4.70;;;;;;;25.94;53.48;100056.28;7685114;32;37816;-71
2023/07/18 05:31:50;;;;;;;7.40;4.55;;;;;;;25.85;53.61;100064.88;7685246;32;40563;-71
2023/07/18 05:36:06;;;;;;;9.30;4.97;;;;;;;25.88;54.06;100069.75;7685228;32;40671;-71
2023/07/18 05:40:23;;;;;;;6.90;4.70;;;;;;;26.05;53.55;100072.09;7685127;32;38496;-72
2023/07/18 05:44:39;;;;;;;8.57;4.78;;;;;;;25.73;54.48;100084.59;7685174;32;37046;-72
2023/07/18 05:48:56;;;;;;;11.57;4.65;;;;;;;25.64;55.22;100085.63;7685107;32;39389;-72
2023/07/18 05:53:12;;;;;;;8.38;4.60;;;;;;;26.02;54.54;100086.00;7684995;32;40621;-73
2023/07/18 05:57:28;;;;;;;10.48;4.60;;;;;;;25.63;54.47;100097.16;7685130;32;38048;-72
2023/07/18 06:01:45;;;;;;;6.95;4.22;;;;;;;25.74;54.78;100091.81;7685001;32;37089;-72
2023/07/18 06:06:01;;;;;;;8.60;4.70;;;;;;;25.94;53.50;100095.38;7684972;32;40295;-71
2023/07/18 06:10:17;;;;;;;10.23;4.45;;;;;;;25.83;55.02;100101.56;7668403;32;39863;-71
2023/07/18 06:14:34;;;;;;;12.30;4.65;;;;;;;25.82;53.08;100104.75;7647597;32;36160;-72
2023/07/18 06:18:50;;;;;;;8.10;4.05;;;;;;;26.06;53.87;100112.03;7646608;32;36793;-71
2023/07/18 06:23:07;;;;;;;6.00;3.97;;;;;;;26.13;51.70;100120.56;7648081;32;40176;-72
2023/07/18 06:27:26;;;;;;;12.15;4.55;;;;;;;26.27;51.28;100116.41;7651693;32;40938;-84
2023/07/18 06:31:44;;;;;;;8.00;4.50;;;;;;;26.04;51.56;100128.34;7658019;32;37897;-79
2023/07/18 06:36:00;;;;;;;7.80;4.20;;;;;;;26.16;52.16;100114.19;7658207;32;37202;-79
2023/07/18 06:40:17;;;;;;;11.12;4.57;;;;;;;26.42;50.58;100115.47;7658203;32;39269;-78
2023/07/18 06:44:33;;;;;;;12.27;4.87;;;;;;;25.81;51.23;100120.66;7657987;32;41050;-78
2023/07/18 06:48:49;;;;;;;8.30;4.40;;;;;;;26.42;50.63;100116.31;7657956;32;38034;-78
2023/07/18 06:53:05;;;;;;;7.43;4.03;;;;;;;26.40;50.87;100126.22;7657931;32;37069;-79
2023/07/18 06:57:22;;;;;;;6.80;4.03;;;;;;;26.40;49.64;100129.03;7657766;32;39458;-69
2023/07/18 07:01:38;;;;;;;12.60;4.55;;;;;;;25.85;50.80;100135.53;7654651;32;41281;-69
2023/07/18 07:05:54;;;;;;;12.07;4.78;;;;;;;26.26;50.20;100128.75;7657069;32;38573;-70
2023/07/18 07:10:11;;;;;;;6.72;4.35;;;;;;;26.76;50.02;100121.31;7631359;32;37902;-70
2023/07/18 07:14:27;;;;;;;9.57;4.12;;;;;;;27.06;49.40;100123.38;7631223;32;39606;-71
2023/07/18 07:18:43;;;;;;;8.10;3.78;;;;;;;27.49;48.11;100122.06;7630962;32;40863;-71
2023/07/18 07:23:00;;;;;;;11.25;4.47;;;;;;;27.72;46.26;100107.94;7630938;32;38158;-71
2023/07/18 07:27:16;;;;;;;6.53;4.00;;;;;;;27.60;45.62;100116.59;7629916;32;37793;-71
2023/07/18 07:31:32;;;;;;;6.53;4.10;;;;;;;27.61;46.17;100132.19;7630685;32;40063;-70
2023/07/18 07:35:49;;;;;;;11.27;4.40;;;;;;;27.59;47.06;100125.37;7630735;32;40765;-84
2023/07/18 07:40:08;;;;;;;9.05;4.20;;;;;;;27.80;45.66;100122.84;7630639;32;37915;-84
2023/07/18 07:44:24;;;;;;;7.18;3.97;;;;;;;27.58;45.67;100130.19;7630722;32;37662;-83
2023/07/18 07:48:41;;;;;;;8.20;4.05;;;;;;;27.70;44.99;100135.53;7630632;32;40165;-87
2023/07/18 07:52:57;;;;;;;9.85;4.45;;;;;;;28.04;44.17;100123.56;7651565;32;40473;-77
2023/07/18 07:57:13;;;;;;;16.73;4.72;;;;;;;28.21;43.77;100134.16;7656300;32;38005;-78
2023/07/18 08:01:30;;;;;;;7.53;3.53;;;;;;;28.62;42.33;100119.38;7655319;32;37295;-78
2023/07/18 08:05:46;;;;;;;9.45;3.58;;;;;;;28.56;41.64;100129.34;7648804;32;39363;-78
2023/07/18 08:10:03;;;;;;;6.78;3.25;;;;;;;28.32;40.84;100125.88;7643540;32;40652;-78
2023/07/18 08:14:19;;;;;;;6.03;2.95;;;;;;;29.15;38.95;100127.44;7655371;32;38016;-78
2023/07/18 08:18:36;;;;;;;6.60;3.00;;;;;;;29.46;34.53;100122.44;7655602;32;37865;-79
2023/07/18 08:22:52;;;;;;;7.55;3.87;;;;;;;29.23;33.95;100119.88;7654585;32;39930;-83
2023/07/18 08:27:08;;;;;;;6.15;3.10;;;;;;;29.30;34.01;100119.13;7651431;32;39981;-79
2023/07/18 08:31:25;;;;;;;9.05;3.60;;;;;;;29.76;32.79;100125.00;7653447;32;38779;-81
2023/07/18 08:35:41;;;;;;;6.85;3.20;;;;;;;29.87;32.69;100113.00;7655925;32;37201;-81
2023/07/18 08:39:58;;;;;;;9.25;3.42;;;;;;;30.14;32.17;100117.09;7659059;32;40140;-82
2023/07/18 08:44:16;;;;;;;6.28;3.00;;;;;;;30.42;29.78;100109.16;7659313;32;39722;-83
2023/07/18 08:48:32;;;;;;;8.50;3.40;;;;;;;30.52;27.70;100111.97;7656681;32;38606;-81
2023/07/18 08:52:48;;;;;;;7.57;3.10;;;;;;;30.48;28.44;100102.75;7654155;32;36996;-81
2023/07/18 08:57:06;;;;;;;6.57;3.00;;;;;;;31.25;28.39;100107.12;7657084;32;40115;-80
2023/07/18 09:01:22;;;;;;;5.50;2.80;;;;;;;31.14;27.76;100103.56;7659223;32;40726;-82
2023/07/18 09:05:38;;;;;;;11.60;3.50;;;;;;;31.27;27.10;100099.09;7646518;32;38658;-80
2023/07/18 09:09:57;;;;;;;5.97;2.33;;;;;;;31.67;24.86;100091.34;7649396;32;37101;-78
2023/07/18 09:14:23;;;;;;;6.72;2.25;;;;;;;31.38;22.36;100088.59;7649718;32;39047;-78
2023/07/18 09:18:44;;;;;;;5.82;2.62;;;;;;;31.70;24.02;100093.38;7656218;32;40118;-72
2023/07/18 09:23:03;;;;;;;6.18;2.55;;;;;;;31.48;23.04;100094.59;7635881;32;37905;-82
2023/07/18 09:27:20;;;;;;;6.55;2.40;;;;;;;31.53;23.99;100091.41;7633259;32;37247;-82
2023/07/18 09:31:36;;;;;;;6.40;2.10;;;;;;;31.62;24.31;100084.13;7651657;32;39148;-82
2023/07/18 09:35:57;;;;;;;5.47;2.90;;;;;;;31.71;26.85;100080.06;7657539;32;39952;-82
2023/07/18 09:40:18;;;;;;;7.00;3.03;;;;;;;31.74;23.86;100063.13;7655603;32;38197;-82
2023/07/18 09:44:35;;;;;;;9.02;3.15;;;;;;;31.90;24.03;100070.31;7657428;32;37639;-81
2023/07/18 09:48:52;;;;;;;6.93;2.67;;;;;;;32.37;23.03;100068.00;7655472;32;39796;-81
2023/07/18 09:53:11;;;;;;;8.57;2.70;;;;;;;32.73;23.52;100059.28;7655641;32;40694;-81
2023/07/18 09:57:28;;;;;;;2.75;2.17;;;;;;;33.11;24.31;100048.81;7657774;32;38760;-81
2023/07/18 10:01:45;;;;;;;4.45;2.70;;;;;;;33.01;23.50;100037.63;7658015;32;36996;-81
2023/07/18 10:06:02;;;;;;;6.37;2.78;;;;;;;32.56;23.16;100052.53;7658376;32;40242;-80
2023/07/18 10:10:18;;;;;;;5.95;2.50;;;;;;;32.64;23.05;100048.47;7658531;32;40621;-81
2023/07/18 10:14:48;;;;;;;7.10;2.72;;;;;;;32.44;22.79;100051.03;7657048;32;37949;-81
2023/07/18 10:19:18;;;;;;;5.30;2.58;;;;;;;32.74;22.34;100043.97;7658413;32;37743;-82
2023/07/18 10:23:43;;;;;;;7.87;2.85;;;;;;;32.54;21.62;100036.03;7656327;32;39211;-82
2023/07/18 10:28:00;;;;;;;4.28;2.33;;;;;;;32.81;23.31;100043.87;7658261;32;40717;-81
2023/07/18 10:32:29;;;;;;;7.45;3.10;;;;;;;32.45;22.56;100038.53;7652055;32;38631;-82
2023/07/18 10:37:00;;;;;;;8.32;3.00;;;;;;;32.59;22.69;100025.53;7630907;32;38251;-85
2023/07/18 10:41:16;;;;;;;8.27;2.47;;;;;;;33.28;23.95;100032.91;7640985;32;39139;-83
2023/07/18 10:45:41;;;;;;;4.22;2.60;;;;;;;33.37;22.90;100023.13;7649817;32;37990;-79
2023/07/18 10:49:58;;;;;;;5.40;2.58;;;;;;;33.21;23.38;100018.88;7650332;32;38065;-83
2023/07/18 10:54:14;;;;;;;5.93;2.78;;;;;;;33.09;21.51;100008.91;7650847;32;37173;-82
2023/07/18 10:58:32;;;;;;;6.40;2.87;;;;;;;32.82;24.22;100010.81;7656637;32;40056;-81
2023/07/18 11:02:48;;;;;;;8.15;2.45;;;;;;;32.91;22.56;100008.31;7655789;32;39714;-82
2023/07/18 11:07:05;;;;;;;9.80;3.15;;;;;;;32.74;22.78;99993.16;7656963;32;37922;-82
2023/07/18 11:11:21;;;;;;;6.32;3.00;;;;;;;32.64;22.79;99985.59;7657357;32;37126;-81
2023/07/18 11:15:38;;;;;;;6.37;3.08;;;;;;;32.36;22.40;99981.81;7657220;32;39744;-82
2023/07/18 11:19:57;;;;;;;7.95;3.05;;;;;;;32.64;23.05;99988.41;7649009;32;41298;-81
2023/07/18 11:24:13;;;;;;;9.77;3.03;;;;;;;32.54;23.05;99984.44;7647940;32;39043;-81
2023/07/18 11:28:33;;;;;;;6.05;3.12;;;;;;;32.31;23.21;99980.22;7647813;32;37039;-80
2023/07/18 11:32:49;;;;;;;7.78;2.87;;;;;;;32.84;23.23;99974.50;7643132;32;40232;-86
2023/07/18 11:37:06;;;;;;;7.07;2.55;;;;;;;33.46;24.16;99976.19;7646655;32;40852;-80
2023/07/18 11:41:33;;;;;;;5.75;2.87;;;;;;;33.47;22.48;99965.69;7644388;32;38705;-81
2023/07/18 11:45:54;;;;;;;5.03;2.80;;;;;;;32.97;23.40;99952.97;7649513;32;37762;-80
2023/07/18 11:50:12;;;;;;;6.80;2.95;;;;;;;33.41;22.48;99950.41;7647891;32;37801;-82
2023/07/18 11:54:28;;;;;;;7.32;2.80;;;;;;;33.97;21.19;99936.69;7652175;32;40729;-82
2023/07/18 11:58:45;;;;;;;8.50;3.47;;;;;;;34.23;21.67;99928.62;7641437;32;37859;-81
2023/07/18 12:03:01;;;;;;;5.37;2.75;;;;;;;34.86;21.27;99921.38;7630215;32;37193;-83
2023/07/18 12:07:18;;;;;;;6.57;2.70;;;;;;;35.08;21.47;99927.41;7630186;32;40126;-83
2023/07/18 12:11:34;;;;;;;7.57;3.33;;;;;;;35.29;21.93;99915.66;7650069;32;40686;-81
2023/07/18 12:15:53;;;;;;;7.10;2.97;;;;;;;34.69;20.46;99909.97;7651567;32;37931;-83
2023/07/18 12:20:12;;;;;;;8.53;2.80;;;;;;;34.90;19.88;99905.94;7648886;32;37328;-82
2023/07/18 12:24:28;;;;;;;7.18;2.62;;;;;;;34.98;20.25;99895.28;7653115;32;39464;-82
2023/07/18 12:28:44;;;;;;;4.87;2.78;;;;;;;35.61;22.03;99890.66;7650999;32;39689;-81
2023/07/18 12:33:01;;;;;;;8.60;3.00;;;;;;;35.84;19.84;99890.50;7651990;32;37870;-81
2023/07/18 12:37:17;;;;;;;5.62;2.70;;;;;;;35.24;20.47;99904.03;7650402;32;37840;-82
2023/07/18 12:41:35;;;;;;;5.78;2.90;;;;;;;35.54;19.44;99883.91;7648539;32;39373;-81
2023/07/18 12:45:52;;;;;;;9.25;2.78;;;;;;;34.70;21.45;99900.22;7651231;32;39378;-82
2023/07/18 12:50:08;;;;;;;6.37;2.80;;;;;;;34.27;21.02;99886.91;7651776;32;38000;-81
2023/07/18 12:54:25;;;;;;;8.57;3.03;;;;;;;34.57;21.13;99893.66;7646772;32;37158;-82
2023/07/18 12:58:42;;;;;;;5.53;2.35;;;;;;;34.68;21.38;99873.59;7635261;32;39369;-82
2023/07/18 13:02:58;;;;;;;6.78;2.60;;;;;;;35.26;20.83;99873.25;7632953;32;39754;-83
2023/07/18 13:07:15;;;;;;;5.32;2.50;;;;;;;35.18;19.24;99870.53;7632712;32;37935;-86
2023/07/18 13:11:31;;;;;;;7.12;3.10;;;;;;;35.28;19.33;99873.59;7632927;32;37151;-81
2023/07/18 13:15:48;;;;;;;6.75;3.33;;;;;;;35.41;19.55;99865.19;7632787;32;39329;-80
2023/07/18 13:20:05;;;;;;;8.65;2.97;;;;;;;35.37;20.64;99870.94;7632743;32;39973;-81
2023/07/18 13:24:22;;;;;;;6.22;2.65;;;;;;;35.78;19.75;99855.41;7631717;32;38781;-80
2023/07/18 13:28:38;;;;;;;6.07;2.60;;;;;;;35.67;20.63;99852.81;7633201;32;38018;-80
2023/07/18 13:32:55;;;;;;;6.18;2.60;;;;;;;36.50;19.32;99841.37;7656705;32;40063;-79
2023/07/18 13:37:11;;;;;;;5.55;2.72;;;;;;;36.61;18.28;99842.66;7643853;32;41626;-80
2023/07/18 13:41:28;;;;;;;7.32;2.75;;;;;;;36.71;19.01;99842.84;7631566;32;39511;-80
2023/07/18 13:45:44;;;;;;;6.95;2.65;;;;;;;36.23;19.08;99834.81;7631834;32;37967;-80
2023/07/18 13:50:01;;;;;;;7.22;2.97;;;;;;;35.58;19.73;99832.00;7633589;32;39167;-79
2023/07/18 13:54:18;;;;;;;5.03;2.80;;;;;;;35.15;21.16;99825.28;7646370;32;40404;-79
2023/07/18 13:58:35;;;;;;;5.55;2.92;;;;;;;34.87;21.68;99832.38;7634776;32;37590;-79
2023/07/18 14:02:51;;;;;;;6.05;2.92;;;;;;;35.04;20.88;99825.53;7631577;32;37948;-79
2023/07/18 14:07:08;;;;;;;8.13;3.00;;;;;;;35.17;19.60;99823.63;7632153;32;39304;-79
2023/07/18 14:11:24;;;;;;;7.03;2.55;;;;;;;35.09;19.80;99816.50;7637379;32;39712;-80
2023/07/18 14:15:44;;;;;;;6.90;2.83;;;;;;;34.53;20.54;99814.47;7630630;32;37671;-80
2023/07/18 14:20:00;;;;;;;9.23;2.58;;;;;;;35.36;19.15;99784.34;7632141;32;35144;-80
2023/07/18 14:24:17;;;;;;;7.40;2.75;;;;;;;35.31;19.89;99784.88;7631197;32;39407;-80
2023/07/18 14:28:33;;;;;;;8.95;3.17;;;;;;;36.35;19.49;99784.22;7631229;32;40038;-80
2023/07/18 14:32:49;;;;;;;5.57;2.53;;;;;;;36.12;18.16;99786.06;7641351;32;37953;-79
2023/07/18 14:37:06;;;;;;;11.40;2.85;;;;;;;35.73;18.98;99780.19;7657413;32;37457;-80
2023/07/18 14:41:23;;;;;;;8.15;2.83;;;;;;;35.62;20.52;99785.31;7657406;32;39142;-80
2023/07/18 14:45:39;;;;;;;6.15;2.67;;;;;;;35.66;19.74;99763.34;7657514;32;40189;-80
2023/07/18 14:49:58;;;;;;;8.25;2.67;;;;;;;34.90;19.40;99769.22;7657650;32;37567;-80
2023/07/18 14:54:16;;;;;;;7.10;2.95;;;;;;;34.91;21.15;99770.81;7657327;32;37265;-79
2023/07/18 14:58:32;;;;;;;6.80;2.72;;;;;;;35.43;20.35;99774.84;7657561;32;40060;-80
2023/07/18 15:02:49;;;;;;;6.47;2.40;;;;;;;35.59;21.62;99762.72;7657094;32;39966;-80
2023/07/18 15:07:05;;;;;;;6.43;2.58;;;;;;;36.09;20.85;99772.75;7657219;32;38839;-79
2023/07/18 15:11:23;;;;;;;5.18;2.47;;;;;;;35.89;21.44;99768.03;7657375;32;38182;-79
2023/07/18 15:15:40;;;;;;;7.55;2.65;;;;;;;34.68;22.15;99775.31;7631888;32;39275;-80
2023/07/18 15:19:56;;;;;;;12.15;3.05;;;;;;;34.74;21.75;99762.28;7630637;32;39797;-79
2023/07/18 15:24:12;;;;;;;5.55;2.70;;;;;;;34.22;22.59;99760.94;7650427;32;37805;-79
2023/07/18 15:28:29;;;;;;;7.25;3.15;;;;;;;34.42;22.61;99746.75;7656851;32;37048;-79
2023/07/18 15:32:45;;;;;;;8.18;2.80;;;;;;;34.48;21.44;99743.41;7655227;32;40098;-80
2023/07/18 15:37:02;;;;;;;6.57;2.75;;;;;;;34.52;22.07;99721.50;7644747;32;40030;-79
2023/07/18 15:41:18;;;;;;;6.62;2.80;;;;;;;35.05;21.86;99713.03;7655893;32;37762;-81
2023/07/18 15:45:38;;;;;;;6.97;2.67;;;;;;;35.11;21.74;99705.59;7647876;32;37055;-82
2023/07/18 15:49:54;;;;;;;8.70;3.00;;;;;;;34.63;21.34;99699.41;7644529;32;39875;-81
2023/07/18 15:54:11;;;;;;;8.23;2.83;;;;;;;34.57;23.02;99679.34;7646222;32;40732;-80
2023/07/18 15:58:27;;;;;;;7.87;2.72;;;;;;;34.73;22.92;99674.97;7643943;32;37983;-81
2023/07/18 16:02:44;;;;;;;8.23;2.80;;;;;;;34.76;22.01;99663.56;7655785;32;36999;-82
2023/07/18 16:07:00;;;;;;;5.57;3.28;;;;;;;34.95;22.07;99666.75;7659219;32;40116;-82
2023/07/18 16:11:19;;;;;;;6.57;3.03;;;;;;;34.70;23.51;99675.81;7658931;32;40760;-81
2023/07/18 16:15:41;;;;;;;7.35;2.97;;;;;;;34.59;23.33;99682.50;7632798;32;38695;-81
2023/07/18 16:19:57;;;;;;;8.27;2.70;;;;;;;34.52;23.85;99688.34;7632854;32;37983;-81
2023/07/18 16:24:14;;;;;;;9.05;3.20;;;;;;;34.23;24.02;99682.50;7633302;32;40138;-82
2023/07/18 16:28:30;;;;;;;11.05;3.17;;;;;;;33.85;24.17;99668.72;7643460;32;40584;-81
2023/07/18 16:32:47;;;;;;;10.70;3.03;;;;;;;34.31;23.65;99669.81;7641767;32;37926;-82
2023/07/18 16:37:03;;;;;;;5.75;3.03;;;;;;;33.93;23.92;99670.19;7657409;32;37396;-81
2023/07/18 16:41:20;;;;;;;6.30;3.05;;;;;;;33.73;24.89;99689.16;7658921;32;39373;-81
2023/07/18 16:45:38;;;;;;;6.62;3.05;;;;;;;33.43;24.41;99697.34;7659054;32;39743;-82
2023/07/18 16:49:54;;;;;;;8.23;3.10;;;;;;;33.25;24.60;99706.09;7658889;32;37224;-82
2023/07/18 16:54:11;;;;;;;6.85;3.65;;;;;;;33.20;25.24;99692.50;7659267;32;36991;-84
2023/07/18 16:58:27;;;;;;;7.55;3.33;;;;;;;33.10;25.57;99693.44;7651843;32;41006;-81
2023/07/18 17:02:44;;;;;;;8.43;3.50;;;;;;;33.15;26.05;99690.16;7636143;32;40083;-81
2023/07/18 17:07:00;;;;;;;5.87;3.45;;;;;;;33.15;25.77;99692.97;7632249;32;37716;-81
2023/07/18 17:11:16;;;;;;;7.35;3.47;;;;;;;32.93;25.70;99701.75;7632369;32;36809;-82
2023/07/18 17:15:33;;;;;;;6.85;3.25;;;;;;;32.73;26.37;99706.50;7632751;32;40289;-81
2023/07/18 17:19:49;;;;;;;7.55;3.22;;;;;;;32.61;27.52;99707.06;7632351;32;39847;-80
2023/07/18 17:24:21;;;;;;;11.73;4.50;;;;;;;32.59;27.57;99701.03;7632762;32;37864;-80
2023/07/18 17:28:38;;;;;;;9.50;3.62;;;;;;;32.33;28.45;99687.25;7631895;32;37834;-80
2023/07/18 17:32:54;;;;;;;8.73;3.85;;;;;;;32.26;29.75;99680.94;7642409;32;39332;-81
2023/07/18 17:37:10;;;;;;;8.07;3.40;;;;;;;32.13;28.99;99681.50;7658224;32;40832;-81
2023/07/18 17:41:27;;;;;;;9.85;3.30;;;;;;;32.04;28.69;99700.88;7658064;32;37821;-81
2023/07/18 17:45:43;;;;;;;6.75;3.25;;;;;;;31.82;30.98;99712.41;7658182;32;37797;-79
2023/07/18 17:49:59;;;;;;;7.45;3.20;;;;;;;31.71;31.54;99708.91;7658760;32;40153;-82
2023/07/18 17:54:15;;;;;;;8.90;3.53;;;;;;;31.76;30.23;99704.84;7650713;32;40811;-81
2023/07/18 17:58:32;;;;;;;7.53;3.37;;;;;;;31.66;30.18;99712.19;7632334;32;37787;-81
2023/07/18 18:02:48;;;;;;;8.98;2.95;;;;;;;31.54;30.90;99715.53;7644615;32;37283;-80
2023/07/18 18:07:05;;;;;;;7.60;3.20;;;;;;;31.49;30.09;99721.56;7658628;32;39892;-79
2023/07/18 18:11:22;;;;;;;9.35;3.10;;;;;;;31.31;31.43;99730.97;7654492;32;39901;-79
2023/07/18 18:15:38;;;;;;;9.25;3.15;;;;;;;31.24;32.01;99731.03;7634398;32;38070;-79
2023/07/18 18:20:07;;;;;;;12.50;3.35;;;;;;;31.03;32.75;99727.19;7651835;32;37836;-79
2023/07/18 18:24:24;;;;;;;7.53;3.37;;;;;;;30.78;33.77;99704.78;7658238;32;39268;-80
2023/07/18 18:28:40;;;;;;;8.18;3.45;;;;;;;30.76;33.45;99698.78;7658038;32;40078;-79
2023/07/18 18:32:57;;;;;;;14.10;3.37;;;;;;;30.74;33.58;99691.97;7658131;32;37689;-79
2023/07/18 18:37:14;;;;;;;6.28;3.05;;;;;;;30.49;33.69;99692.91;7657969;32;38053;-79
2023/07/18 18:41:31;;;;;;;7.10;3.37;;;;;;;30.46;33.81;99704.97;7656722;32;39353;-83
2023/07/18 18:45:47;;;;;;;7.90;3.22;;;;;;;30.31;34.11;99718.28;7654892;32;40067;-83
2023/07/18 18:50:04;;;;;;;6.90;2.97;;;;;;;30.14;35.08;99708.72;7656056;32;38001;-84
2023/07/18 18:54:20;;;;;;;4.72;2.60;;;;;;;29.99;35.81;99693.91;7657764;32;36968;-82
2023/07/18 18:58:37;;;;;;;8.63;3.40;;;;;;;29.94;35.99;99663.41;7657893;32;39262;-84
2023/07/18 19:02:53;;;;;;;11.98;3.33;;;;;;;29.87;34.77;99667.06;7657342;32;40723;-85
2023/07/18 19:07:09;;;;;;;8.48;2.95;;;;;;;29.68;34.71;99668.25;7657476;32;38738;-84
2023/07/18 19:11:26;;;;;;;7.95;3.00;;;;;;;29.61;35.05;99653.44;7657654;32;36987;-82
2023/07/18 19:15:42;;;;;;;7.65;3.60;;;;;;;29.33;36.46;99652.28;7657227;32;40166;-82
2023/07/18 19:19:58;;;;;;;7.47;3.22;;;;;;;29.27;35.31;99651.91;7654715;32;39653;-84
2023/07/18 19:24:14;;;;;;;5.82;3.00;;;;;;;29.18;36.06;99635.47;7652771;32;37981;-84
2023/07/18 19:28:31;;;;;;;9.02;3.42;;;;;;;29.11;35.63;99623.41;7637520;32;37219;-83
2023/07/18 19:32:47;;;;;;;9.30;3.45;;;;;;;29.02;34.93;99615.41;7635682;32;40156;-82
2023/07/18 19:37:05;;;;;;;26.98;4.12;;;;;;;29.06;34.57;99599.34;7637024;32;40230;-82
2023/07/18 19:41:23;;;;;;;10.25;3.83;;;;;;;28.71;36.50;99584.13;7642705;32;38679;-79
2023/07/18 19:45:39;;;;;;;9.38;3.10;;;;;;;28.68;36.69;99592.56;7641744;32;37209;-80
2023/07/18 19:49:55;;;;;;;7.32;3.67;;;;;;;28.58;36.81;99610.97;7639628;32;40111;-80
2023/07/18 19:54:11;;;;;;;8.70;3.47;;;;;;;28.46;37.58;99598.91;7637552;32;40912;-80
2023/07/18 19:58:28;;;;;;;6.93;3.00;;;;;;;28.33;37.92;99597.69;7636735;32;38948;-79
2023/07/18 20:02:44;;;;;;;6.10;3.45;;;;;;;28.47;37.84;99597.69;7640450;32;37708;-83